sensor_id;sensor_type;location;lat;lon;timestamp;P1;durP1;ratioP1;P2;durP2;ratioP2
18340;SDS011;9296;48.084;16.352;2023-07-31T00:01:30;2.13;;;1.60;;
18340;SDS011;9296;48.084;16.352;2023-07-31T00:03:58;1.88;;;1.67;;
18340;SDS011;9296;48.084;16.352;2023-07-31T00:06:25;2.25;;;1.65;;
18340;SDS011;9296;48.084;16.352;2023-07-31T00:08:53;2.67;;;1.80;;
18340;SDS011;9296;48.084;16.352;2023-07-31T00:11:20;1.70;;;1.50;;
18340;SDS011;9296;48.084;16.352;2023-07-31T00:13:47;2.47;;;1.90;;
18340;SDS011;9296;48.084;16.352;2023-07-31T00:16:14;2.83;;;1.70;;
18340;SDS011;9296;48.084;16.352;2023-07-31T00:18:41;2.97;;;1.80;;
18340;SDS011;9296;48.084;16.352;2023-07-31T00:21:10;3.47;;;2.00;;
18340;SDS011;9296;48.084;16.352;2023-07-31T00:23:37;4.38;;;1.80;;
18340;SDS011;9296;48.084;16.352;2023-07-31T00:26:04;2.58;;;1.80;;
18340;SDS011;9296;48.084;16.352;2023-07-31T00:28:31;3.47;;;1.63;;
18340;SDS011;9296;48.084;16.352;2023-07-31T00:30:58;2.50;;;1.60;;
18340;SDS011;9296;48.084;16.352;2023-07-31T00:33:27;2.45;;;1.45;;
18340;SDS011;9296;48.084;16.352;2023-07-31T00:35:54;3.30;;;1.60;;
18340;SDS011;9296;48.084;16.352;2023-07-31T00:38:22;2.13;;;1.60;;
18340;SDS011;9296;48.084;16.352;2023-07-31T00:40:49;2.80;;;1.73;;
18340;SDS011;9296;48.084;16.352;2023-07-31T00:43:17;2.03;;;1.50;;
18340;SDS011;9296;48.084;16.352;2023-07-31T00:45:44;3.55;;;1.65;;
18340;SDS011;9296;48.084;16.352;2023-07-31T00:48:30;3.78;;;1.92;;
18340;SDS011;9296;48.084;16.352;2023-07-31T00:50:57;2.38;;;1.60;;
18340;SDS011;9296;48.084;16.352;2023-07-31T00:53:27;2.72;;;1.58;;
18340;SDS011;9296;48.084;16.352;2023-07-31T00:55:54;2.72;;;1.60;;
18340;SDS011;9296;48.084;16.352;2023-07-31T00:58:22;2.47;;;1.88;;
18340;SDS011;9296;48.084;16.352;2023-07-31T01:00:49;1.85;;;1.60;;
18340;SDS011;9296;48.084;16.352;2023-07-31T01:03:16;2.30;;;1.80;;
18340;SDS011;9296;48.084;16.352;2023-07-31T01:05:46;2.88;;;1.73;;
18340;SDS011;9296;48.084;16.352;2023-07-31T01:08:18;3.90;;;1.60;;
18340;SDS011;9296;48.084;16.352;2023-07-31T01:10:54;2.88;;;1.77;;
18340;SDS011;9296;48.084;16.352;2023-07-31T01:13:22;2.35;;;1.60;;
18340;SDS011;9296;48.084;16.352;2023-07-31T01:15:50;3.25;;;1.45;;
18340;SDS011;9296;48.084;16.352;2023-07-31T01:18:17;3.67;;;1.70;;
18340;SDS011;9296;48.084;16.352;2023-07-31T01:20:45;2.55;;;1.60;;
18340;SDS011;9296;48.084;16.352;2023-07-31T01:23:28;2.67;;;1.60;;
18340;SDS011;9296;48.084;16.352;2023-07-31T01:26:07;3.15;;;1.70;;
18340;SDS011;9296;48.084;16.352;2023-07-31T01:28:40;3.75;;;1.83;;
18340;SDS011;9296;48.084;16.352;2023-07-31T01:31:10;3.35;;;1.70;;
18340;SDS011;9296;48.084;16.352;2023-07-31T01:36:24;3.15;;;1.83;;
18340;SDS011;9296;48.084;16.352;2023-07-31T01:38:51;3.10;;;1.65;;
18340;SDS011;9296;48.084;16.352;2023-07-31T01:41:20;2.28;;;1.55;;
18340;SDS011;9296;48.084;16.352;2023-07-31T01:43:47;1.63;;;1.52;;
18340;SDS011;9296;48.084;16.352;2023-07-31T01:46:14;2.55;;;1.70;;
18340;SDS011;9296;48.084;16.352;2023-07-31T01:48:42;2.33;;;1.60;;
18340;SDS011;9296;48.084;16.352;2023-07-31T01:51:09;2.20;;;1.60;;
18340;SDS011;9296;48.084;16.352;2023-07-31T01:53:36;2.15;;;1.67;;
18340;SDS011;9296;48.084;16.352;2023-07-31T01:56:03;2.88;;;1.63;;
18340;SDS011;9296;48.084;16.352;2023-07-31T01:58:32;2.65;;;1.60;;
18340;SDS011;9296;48.084;16.352;2023-07-31T02:00:59;2.95;;;1.70;;
18340;SDS011;9296;48.084;16.352;2023-07-31T02:03:27;5.43;;;1.80;;
18340;SDS011;9296;48.084;16.352;2023-07-31T02:05:54;2.35;;;1.88;;
18340;SDS011;9296;48.084;16.352;2023-07-31T02:08:21;4.55;;;1.92;;
18340;SDS011;9296;48.084;16.352;2023-07-31T02:10:49;2.47;;;1.70;;
18340;SDS011;9296;48.084;16.352;2023-07-31T02:13:16;2.55;;;1.73;;
18340;SDS011;9296;48.084;16.352;2023-07-31T02:15:46;2.13;;;1.80;;
18340;SDS011;9296;48.084;16.352;2023-07-31T02:18:13;3.05;;;1.70;;
18340;SDS011;9296;48.084;16.352;2023-07-31T02:20:40;3.97;;;1.88;;
18340;SDS011;9296;48.084;16.352;2023-07-31T02:23:08;3.05;;;1.73;;
18340;SDS011;9296;48.084;16.352;2023-07-31T02:25:35;3.13;;;1.95;;
18340;SDS011;9296;48.084;16.352;2023-07-31T02:28:02;2.28;;;1.63;;
18340;SDS011;9296;48.084;16.352;2023-07-31T02:30:29;1.77;;;1.58;;
18340;SDS011;9296;48.084;16.352;2023-07-31T02:32:58;3.65;;;1.80;;
18340;SDS011;9296;48.084;16.352;2023-07-31T02:35:25;2.50;;;1.70;;
18340;SDS011;9296;48.084;16.352;2023-07-31T02:37:52;2.83;;;1.80;;
18340;SDS011;9296;48.084;16.352;2023-07-31T02:40:20;3.35;;;1.80;;
18340;SDS011;9296;48.084;16.352;2023-07-31T02:42:47;3.03;;;2.22;;
18340;SDS011;9296;48.084;16.352;2023-07-31T02:45:14;3.72;;;1.70;;
18340;SDS011;9296;48.084;16.352;2023-07-31T02:47:41;4.13;;;1.90;;
18340;SDS011;9296;48.084;16.352;2023-07-31T02:50:10;2.75;;;1.95;;
18340;SDS011;9296;48.084;16.352;2023-07-31T02:52:37;3.83;;;2.08;;
18340;SDS011;9296;48.084;16.352;2023-07-31T02:55:05;4.90;;;1.92;;
18340;SDS011;9296;48.084;16.352;2023-07-31T02:57:32;3.22;;;2.03;;
18340;SDS011;9296;48.084;16.352;2023-07-31T03:00:00;2.15;;;1.60;;
18340;SDS011;9296;48.084;16.352;2023-07-31T03:02:30;3.10;;;2.10;;
18340;SDS011;9296;48.084;16.352;2023-07-31T03:04:57;2.97;;;1.85;;
18340;SDS011;9296;48.084;16.352;2023-07-31T03:07:26;2.30;;;2.10;;
18340;SDS011;9296;48.084;16.352;2023-07-31T03:09:53;3.95;;;2.25;;
18340;SDS011;9296;48.084;16.352;2023-07-31T03:12:20;4.82;;;2.58;;
18340;SDS011;9296;48.084;16.352;2023-07-31T03:14:48;4.15;;;2.30;;
18340;SDS011;9296;48.084;16.352;2023-07-31T03:17:15;5.40;;;2.55;;
18340;SDS011;9296;48.084;16.352;2023-07-31T03:19:42;2.78;;;2.40;;
18340;SDS011;9296;48.084;16.352;2023-07-31T03:22:09;3.03;;;2.72;;
18340;SDS011;9296;48.084;16.352;2023-07-31T03:24:38;3.40;;;2.40;;
18340;SDS011;9296;48.084;16.352;2023-07-31T03:27:05;2.75;;;2.22;;
18340;SDS011;9296;48.084;16.352;2023-07-31T03:29:32;4.28;;;2.50;;
18340;SDS011;9296;48.084;16.352;2023-07-31T03:35:05;3.00;;;2.40;;
18340;SDS011;9296;48.084;16.352;2023-07-31T03:37:32;4.63;;;2.70;;
18340;SDS011;9296;48.084;16.352;2023-07-31T03:40:00;5.72;;;3.08;;
18340;SDS011;9296;48.084;16.352;2023-07-31T03:42:29;3.17;;;2.40;;
18340;SDS011;9296;48.084;16.352;2023-07-31T03:44:56;3.92;;;2.28;;
18340;SDS011;9296;48.084;16.352;2023-07-31T03:47:23;3.33;;;2.40;;
18340;SDS011;9296;48.084;16.352;2023-07-31T03:49:51;3.35;;;2.30;;
18340;SDS011;9296;48.084;16.352;2023-07-31T03:52:18;4.25;;;2.50;;
18340;SDS011;9296;48.084;16.352;2023-07-31T03:54:45;4.00;;;2.30;;
18340;SDS011;9296;48.084;16.352;2023-07-31T03:57:14;3.20;;;2.40;;
18340;SDS011;9296;48.084;16.352;2023-07-31T03:59:41;3.60;;;2.40;;
18340;SDS011;9296;48.084;16.352;2023-07-31T04:05:12;3.00;;;2.15;;
18340;SDS011;9296;48.084;16.352;2023-07-31T04:07:39;2.97;;;2.03;;
18340;SDS011;9296;48.084;16.352;2023-07-31T04:10:06;4.35;;;2.13;;
18340;SDS011;9296;48.084;16.352;2023-07-31T04:12:35;3.97;;;2.10;;
18340;SDS011;9296;48.084;16.352;2023-07-31T04:15:02;3.08;;;2.17;;
18340;SDS011;9296;48.084;16.352;2023-07-31T04:17:30;3.47;;;2.47;;
18340;SDS011;9296;48.084;16.352;2023-07-31T04:19:57;3.67;;;2.05;;
18340;SDS011;9296;48.084;16.352;2023-07-31T04:22:24;5.22;;;2.40;;
18340;SDS011;9296;48.084;16.352;2023-07-31T04:24:51;3.35;;;2.35;;
18340;SDS011;9296;48.084;16.352;2023-07-31T04:27:18;3.80;;;2.30;;
18340;SDS011;9296;48.084;16.352;2023-07-31T04:29:47;2.38;;;1.90;;
18340;SDS011;9296;48.084;16.352;2023-07-31T04:32:14;3.58;;;2.10;;
18340;SDS011;9296;48.084;16.352;2023-07-31T04:34:41;3.30;;;2.40;;
18340;SDS011;9296;48.084;16.352;2023-07-31T04:37:08;3.83;;;2.13;;
18340;SDS011;9296;48.084;16.352;2023-07-31T04:39:36;2.95;;;2.40;;
18340;SDS011;9296;48.084;16.352;2023-07-31T04:42:03;4.43;;;2.10;;
18340;SDS011;9296;48.084;16.352;2023-07-31T04:44:30;4.57;;;2.30;;
18340;SDS011;9296;48.084;16.352;2023-07-31T04:46:59;2.60;;;2.13;;
18340;SDS011;9296;48.084;16.352;2023-07-31T04:49:27;4.15;;;2.22;;
18340;SDS011;9296;48.084;16.352;2023-07-31T04:51:54;2.67;;;2.05;;
18340;SDS011;9296;48.084;16.352;2023-07-31T04:54:21;4.70;;;2.30;;
18340;SDS011;9296;48.084;16.352;2023-07-31T04:56:48;2.90;;;2.00;;
18340;SDS011;9296;48.084;16.352;2023-07-31T04:59:15;5.30;;;2.20;;
18340;SDS011;9296;48.084;16.352;2023-07-31T05:01:42;4.68;;;2.05;;
18340;SDS011;9296;48.084;16.352;2023-07-31T05:04:12;3.00;;;2.17;;
18340;SDS011;9296;48.084;16.352;2023-07-31T05:06:39;3.38;;;2.05;;
18340;SDS011;9296;48.084;16.352;2023-07-31T05:09:06;4.47;;;2.05;;
18340;SDS011;9296;48.084;16.352;2023-07-31T05:11:34;4.78;;;2.00;;
18340;SDS011;9296;48.084;16.352;2023-07-31T05:14:01;3.53;;;2.15;;
18340;SDS011;9296;48.084;16.352;2023-07-31T05:16:28;2.88;;;2.00;;
18340;SDS011;9296;48.084;16.352;2023-07-31T05:22:01;3.63;;;1.92;;
18340;SDS011;9296;48.084;16.352;2023-07-31T05:24:28;2.30;;;1.80;;
18340;SDS011;9296;48.084;16.352;2023-07-31T05:26:55;2.83;;;1.90;;
18340;SDS011;9296;48.084;16.352;2023-07-31T05:29:23;3.08;;;1.80;;
18340;SDS011;9296;48.084;16.352;2023-07-31T05:31:59;2.72;;;1.92;;
18340;SDS011;9296;48.084;16.352;2023-07-31T05:34:26;3.90;;;2.20;;
18340;SDS011;9296;48.084;16.352;2023-07-31T05:36:53;3.22;;;2.00;;
18340;SDS011;9296;48.084;16.352;2023-07-31T05:39:22;2.63;;;1.83;;
18340;SDS011;9296;48.084;16.352;2023-07-31T05:41:49;4.18;;;2.17;;
18340;SDS011;9296;48.084;16.352;2023-07-31T05:44:16;2.05;;;1.70;;
18340;SDS011;9296;48.084;16.352;2023-07-31T05:50:02;1.98;;;1.77;;
18340;SDS011;9296;48.084;16.352;2023-07-31T05:52:30;4.00;;;2.00;;
18340;SDS011;9296;48.084;16.352;2023-07-31T05:54:58;2.72;;;1.70;;
18340;SDS011;9296;48.084;16.352;2023-07-31T05:57:26;2.85;;;2.00;;
18340;SDS011;9296;48.084;16.352;2023-07-31T05:59:53;2.88;;;1.85;;
18340;SDS011;9296;48.084;16.352;2023-07-31T06:02:20;3.50;;;2.13;;
18340;SDS011;9296;48.084;16.352;2023-07-31T06:04:47;3.13;;;1.88;;
18340;SDS011;9296;48.084;16.352;2023-07-31T06:07:15;4.03;;;1.90;;
18340;SDS011;9296;48.084;16.352;2023-07-31T06:09:42;3.42;;;2.03;;
18340;SDS011;9296;48.084;16.352;2023-07-31T06:12:11;2.63;;;1.80;;
18340;SDS011;9296;48.084;16.352;2023-07-31T06:14:38;5.00;;;1.90;;
18340;SDS011;9296;48.084;16.352;2023-07-31T06:17:08;3.70;;;2.05;;
18340;SDS011;9296;48.084;16.352;2023-07-31T06:19:35;3.00;;;1.90;;
18340;SDS011;9296;48.084;16.352;2023-07-31T06:22:03;4.00;;;1.90;;
18340;SDS011;9296;48.084;16.352;2023-07-31T06:24:30;3.67;;;2.10;;
18340;SDS011;9296;48.084;16.352;2023-07-31T06:26:57;4.40;;;1.65;;
18340;SDS011;9296;48.084;16.352;2023-07-31T06:29:26;4.78;;;1.60;;
18340;SDS011;9296;48.084;16.352;2023-07-31T06:34:56;2.65;;;1.67;;
18340;SDS011;9296;48.084;16.352;2023-07-31T06:37:23;3.88;;;1.70;;
18340;SDS011;9296;48.084;16.352;2023-07-31T06:39:50;3.10;;;1.58;;
18340;SDS011;9296;48.084;16.352;2023-07-31T06:42:17;4.43;;;1.92;;
18340;SDS011;9296;48.084;16.352;2023-07-31T06:44:46;5.25;;;2.55;;
18340;SDS011;9296;48.084;16.352;2023-07-31T06:49:59;2.47;;;1.40;;
18340;SDS011;9296;48.084;16.352;2023-07-31T06:52:26;4.43;;;1.77;;
18340;SDS011;9296;48.084;16.352;2023-07-31T06:55:00;4.03;;;1.52;;
18340;SDS011;9296;48.084;16.352;2023-07-31T06:57:27;3.25;;;1.85;;
18340;SDS011;9296;48.084;16.352;2023-07-31T06:59:56;3.45;;;1.60;;
18340;SDS011;9296;48.084;16.352;2023-07-31T07:05:26;4.13;;;1.80;;
18340;SDS011;9296;48.084;16.352;2023-07-31T07:07:54;3.33;;;1.60;;
18340;SDS011;9296;48.084;16.352;2023-07-31T07:10:21;3.67;;;1.60;;
18340;SDS011;9296;48.084;16.352;2023-07-31T07:12:48;2.65;;;1.35;;
18340;SDS011;9296;48.084;16.352;2023-07-31T07:15:17;3.42;;;1.88;;
18340;SDS011;9296;48.084;16.352;2023-07-31T07:23:34;5.57;;;1.90;;
18340;SDS011;9296;48.084;16.352;2023-07-31T07:26:01;2.22;;;1.48;;
18340;SDS011;9296;48.084;16.352;2023-07-31T07:28:28;4.28;;;1.60;;
18340;SDS011;9296;48.084;16.352;2023-07-31T07:30:57;1.83;;;1.40;;
18340;SDS011;9296;48.084;16.352;2023-07-31T07:33:25;3.90;;;1.67;;
18340;SDS011;9296;48.084;16.352;2023-07-31T07:35:52;4.55;;;1.70;;
18340;SDS011;9296;48.084;16.352;2023-07-31T07:38:19;2.80;;;1.63;;
18340;SDS011;9296;48.084;16.352;2023-07-31T07:40:46;2.67;;;1.63;;
18340;SDS011;9296;48.084;16.352;2023-07-31T07:43:15;5.32;;;1.75;;
18340;SDS011;9296;48.084;16.352;2023-07-31T07:45:42;4.85;;;1.55;;
18340;SDS011;9296;48.084;16.352;2023-07-31T07:48:29;2.65;;;1.58;;
18340;SDS011;9296;48.084;16.352;2023-07-31T07:50:56;4.70;;;1.33;;
18340;SDS011;9296;48.084;16.352;2023-07-31T07:53:23;4.97;;;1.40;;
18340;SDS011;9296;48.084;16.352;2023-07-31T07:55:51;5.82;;;1.83;;
18340;SDS011;9296;48.084;16.352;2023-07-31T07:58:18;2.75;;;1.23;;
18340;SDS011;9296;48.084;16.352;2023-07-31T08:00:48;2.15;;;1.17;;
18340;SDS011;9296;48.084;16.352;2023-07-31T08:03:15;4.32;;;1.50;;
18340;SDS011;9296;48.084;16.352;2023-07-31T08:05:44;4.28;;;1.85;;
18340;SDS011;9296;48.084;16.352;2023-07-31T08:08:14;2.00;;;1.35;;
18340;SDS011;9296;48.084;16.352;2023-07-31T08:10:41;4.03;;;1.45;;
18340;SDS011;9296;48.084;16.352;2023-07-31T08:13:09;2.47;;;1.38;;
18340;SDS011;9296;48.084;16.352;2023-07-31T08:15:36;4.03;;;1.42;;
18340;SDS011;9296;48.084;16.352;2023-07-31T08:18:03;3.78;;;1.50;;
18340;SDS011;9296;48.084;16.352;2023-07-31T08:20:30;3.20;;;1.40;;
18340;SDS011;9296;48.084;16.352;2023-07-31T08:22:59;3.13;;;1.60;;
18340;SDS011;9296;48.084;16.352;2023-07-31T08:25:26;3.33;;;1.58;;
18340;SDS011;9296;48.084;16.352;2023-07-31T08:27:53;2.47;;;1.60;;
18340;SDS011;9296;48.084;16.352;2023-07-31T08:30:21;4.53;;;1.55;;
18340;SDS011;9296;48.084;16.352;2023-07-31T08:32:48;2.47;;;1.40;;
18340;SDS011;9296;48.084;16.352;2023-07-31T08:35:16;3.17;;;1.40;;
18340;SDS011;9296;48.084;16.352;2023-07-31T08:37:43;2.38;;;1.50;;
18340;SDS011;9296;48.084;16.352;2023-07-31T08:40:11;2.40;;;1.38;;
18340;SDS011;9296;48.084;16.352;2023-07-31T08:42:43;2.83;;;1.40;;
18340;SDS011;9296;48.084;16.352;2023-07-31T08:45:12;2.53;;;1.40;;
18340;SDS011;9296;48.084;16.352;2023-07-31T08:47:40;2.60;;;1.40;;
18340;SDS011;9296;48.084;16.352;2023-07-31T08:50:08;3.55;;;1.50;;
18340;SDS011;9296;48.084;16.352;2023-07-31T08:52:36;3.08;;;1.50;;
18340;SDS011;9296;48.084;16.352;2023-07-31T08:55:03;2.10;;;1.45;;
18340;SDS011;9296;48.084;16.352;2023-07-31T08:57:32;4.03;;;1.95;;
18340;SDS011;9296;48.084;16.352;2023-07-31T09:00:01;4.00;;;1.38;;
18340;SDS011;9296;48.084;16.352;2023-07-31T09:02:31;4.20;;;1.50;;
18340;SDS011;9296;48.084;16.352;2023-07-31T09:05:01;3.05;;;1.40;;
18340;SDS011;9296;48.084;16.352;2023-07-31T09:07:28;3.70;;;1.35;;
18340;SDS011;9296;48.084;16.352;2023-07-31T09:09:56;2.80;;;1.55;;
18340;SDS011;9296;48.084;16.352;2023-07-31T09:12:23;2.78;;;1.67;;
18340;SDS011;9296;48.084;16.352;2023-07-31T09:14:52;3.40;;;1.60;;
18340;SDS011;9296;48.084;16.352;2023-07-31T09:17:28;2.55;;;1.35;;
18340;SDS011;9296;48.084;16.352;2023-07-31T09:19:56;3.97;;;1.65;;
18340;SDS011;9296;48.084;16.352;2023-07-31T09:22:31;3.13;;;1.60;;
18340;SDS011;9296;48.084;16.352;2023-07-31T09:25:03;3.22;;;1.77;;
18340;SDS011;9296;48.084;16.352;2023-07-31T09:27:37;2.95;;;1.50;;
18340;SDS011;9296;48.084;16.352;2023-07-31T09:30:13;6.75;;;1.60;;
18340;SDS011;9296;48.084;16.352;2023-07-31T09:32:40;4.55;;;1.70;;
18340;SDS011;9296;48.084;16.352;2023-07-31T09:37:50;4.43;;;1.50;;
18340;SDS011;9296;48.084;16.352;2023-07-31T09:40:28;3.42;;;1.90;;
18340;SDS011;9296;48.084;16.352;2023-07-31T09:42:59;3.13;;;1.50;;
18340;SDS011;9296;48.084;16.352;2023-07-31T09:45:28;2.38;;;1.52;;
18340;SDS011;9296;48.084;16.352;2023-07-31T09:47:55;7.03;;;1.50;;
18340;SDS011;9296;48.084;16.352;2023-07-31T09:50:23;4.30;;;1.50;;
18340;SDS011;9296;48.084;16.352;2023-07-31T09:52:50;5.38;;;1.42;;
18340;SDS011;9296;48.084;16.352;2023-07-31T09:55:18;3.30;;;1.48;;
18340;SDS011;9296;48.084;16.352;2023-07-31T09:57:46;3.28;;;1.40;;
18340;SDS011;9296;48.084;16.352;2023-07-31T10:00:14;3.17;;;1.40;;
18340;SDS011;9296;48.084;16.352;2023-07-31T10:02:44;4.60;;;1.60;;
18340;SDS011;9296;48.084;16.352;2023-07-31T10:05:49;4.80;;;1.60;;
18340;SDS011;9296;48.084;16.352;2023-07-31T10:08:18;3.78;;;1.25;;
18340;SDS011;9296;48.084;16.352;2023-07-31T10:10:46;5.35;;;1.40;;
18340;SDS011;9296;48.084;16.352;2023-07-31T10:13:14;4.22;;;1.52;;
18340;SDS011;9296;48.084;16.352;2023-07-31T10:15:41;2.10;;;1.50;;
18340;SDS011;9296;48.084;16.352;2023-07-31T10:18:10;4.47;;;1.50;;
18340;SDS011;9296;48.084;16.352;2023-07-31T10:20:37;2.70;;;1.40;;
18340;SDS011;9296;48.084;16.352;2023-07-31T10:23:04;2.50;;;1.58;;
18340;SDS011;9296;48.084;16.352;2023-07-31T10:25:33;5.18;;;1.50;;
18340;SDS011;9296;48.084;16.352;2023-07-31T10:28:01;3.63;;;1.50;;
18340;SDS011;9296;48.084;16.352;2023-07-31T10:30:29;2.78;;;1.45;;
18340;SDS011;9296;48.084;16.352;2023-07-31T10:32:56;2.13;;;1.30;;
18340;SDS011;9296;48.084;16.352;2023-07-31T10:35:25;4.70;;;1.50;;
18340;SDS011;9296;48.084;16.352;2023-07-31T10:37:52;3.60;;;1.50;;
18340;SDS011;9296;48.084;16.352;2023-07-31T10:40:23;2.78;;;1.63;;
18340;SDS011;9296;48.084;16.352;2023-07-31T10:42:51;2.03;;;1.40;;
18340;SDS011;9296;48.084;16.352;2023-07-31T10:45:24;1.73;;;1.35;;
18340;SDS011;9296;48.084;16.352;2023-07-31T10:47:58;4.82;;;1.60;;
18340;SDS011;9296;48.084;16.352;2023-07-31T10:50:27;3.42;;;1.48;;
18340;SDS011;9296;48.084;16.352;2023-07-31T10:52:55;3.50;;;1.60;;
18340;SDS011;9296;48.084;16.352;2023-07-31T10:55:29;2.55;;;1.50;;
18340;SDS011;9296;48.084;16.352;2023-07-31T10:57:58;3.97;;;1.40;;
18340;SDS011;9296;48.084;16.352;2023-07-31T11:00:26;2.97;;;1.30;;
18340;SDS011;9296;48.084;16.352;2023-07-31T11:03:09;4.80;;;1.27;;
18340;SDS011;9296;48.084;16.352;2023-07-31T11:05:45;2.28;;;1.27;;
18340;SDS011;9296;48.084;16.352;2023-07-31T11:08:13;3.53;;;1.40;;
18340;SDS011;9296;48.084;16.352;2023-07-31T11:10:41;2.85;;;1.40;;
18340;SDS011;9296;48.084;16.352;2023-07-31T11:13:09;2.88;;;1.50;;
18340;SDS011;9296;48.084;16.352;2023-07-31T11:15:36;3.28;;;1.30;;
18340;SDS011;9296;48.084;16.352;2023-07-31T11:18:03;3.38;;;1.30;;
18340;SDS011;9296;48.084;16.352;2023-07-31T11:20:33;2.83;;;1.60;;
18340;SDS011;9296;48.084;16.352;2023-07-31T11:23:02;3.28;;;1.70;;
18340;SDS011;9296;48.084;16.352;2023-07-31T11:25:30;3.47;;;1.25;;
18340;SDS011;9296;48.084;16.352;2023-07-31T11:27:57;2.30;;;1.50;;
18340;SDS011;9296;48.084;16.352;2023-07-31T11:30:24;2.75;;;1.40;;
18340;SDS011;9296;48.084;16.352;2023-07-31T11:32:52;2.25;;;1.40;;
18340;SDS011;9296;48.084;16.352;2023-07-31T11:38:44;4.47;;;1.63;;
18340;SDS011;9296;48.084;16.352;2023-07-31T11:41:13;2.20;;;1.30;;
18340;SDS011;9296;48.084;16.352;2023-07-31T11:43:40;3.05;;;1.20;;
18340;SDS011;9296;48.084;16.352;2023-07-31T11:46:08;2.38;;;1.17;;
18340;SDS011;9296;48.084;16.352;2023-07-31T11:48:36;2.78;;;1.50;;
18340;SDS011;9296;48.084;16.352;2023-07-31T11:51:04;2.88;;;1.60;;
18340;SDS011;9296;48.084;16.352;2023-07-31T11:53:33;2.47;;;1.50;;
18340;SDS011;9296;48.084;16.352;2023-07-31T11:56:03;1.80;;;1.30;;
18340;SDS011;9296;48.084;16.352;2023-07-31T11:58:31;2.42;;;1.15;;
18340;SDS011;9296;48.084;16.352;2023-07-31T12:00:58;1.98;;;1.50;;
18340;SDS011;9296;48.084;16.352;2023-07-31T12:06:33;4.13;;;1.80;;
18340;SDS011;9296;48.084;16.352;2023-07-31T12:09:01;3.72;;;1.58;;
18340;SDS011;9296;48.084;16.352;2023-07-31T12:11:30;2.78;;;1.50;;
18340;SDS011;9296;48.084;16.352;2023-07-31T12:13:57;3.40;;;1.83;;
18340;SDS011;9296;48.084;16.352;2023-07-31T12:16:25;2.45;;;1.40;;
18340;SDS011;9296;48.084;16.352;2023-07-31T12:18:53;1.75;;;1.38;;
18340;SDS011;9296;48.084;16.352;2023-07-31T12:21:21;2.38;;;1.33;;
18340;SDS011;9296;48.084;16.352;2023-07-31T12:23:48;2.78;;;1.38;;
18340;SDS011;9296;48.084;16.352;2023-07-31T12:26:16;2.95;;;1.50;;
18340;SDS011;9296;48.084;16.352;2023-07-31T12:28:45;2.22;;;1.40;;
18340;SDS011;9296;48.084;16.352;2023-07-31T12:31:13;2.85;;;1.50;;
18340;SDS011;9296;48.084;16.352;2023-07-31T12:33:42;3.92;;;1.60;;
18340;SDS011;9296;48.084;16.352;2023-07-31T12:36:10;3.25;;;1.60;;
18340;SDS011;9296;48.084;16.352;2023-07-31T12:38:37;2.30;;;1.40;;
18340;SDS011;9296;48.084;16.352;2023-07-31T12:41:04;3.08;;;1.67;;
18340;SDS011;9296;48.084;16.352;2023-07-31T12:43:32;2.95;;;1.85;;
18340;SDS011;9296;48.084;16.352;2023-07-31T12:46:01;6.72;;;1.77;;
18340;SDS011;9296;48.084;16.352;2023-07-31T12:48:28;3.00;;;1.60;;
18340;SDS011;9296;48.084;16.352;2023-07-31T12:50:55;2.70;;;1.70;;
18340;SDS011;9296;48.084;16.352;2023-07-31T12:53:22;4.50;;;1.70;;
18340;SDS011;9296;48.084;16.352;2023-07-31T12:55:50;2.42;;;1.80;;
18340;SDS011;9296;48.084;16.352;2023-07-31T12:58:17;5.95;;;2.42;;
18340;SDS011;9296;48.084;16.352;2023-07-31T13:00:44;5.57;;;2.75;;
18340;SDS011;9296;48.084;16.352;2023-07-31T13:03:13;6.65;;;2.60;;
18340;SDS011;9296;48.084;16.352;2023-07-31T13:08:44;2.90;;;2.33;;
18340;SDS011;9296;48.084;16.352;2023-07-31T13:11:11;3.35;;;2.10;;
18340;SDS011;9296;48.084;16.352;2023-07-31T13:13:39;3.58;;;2.60;;
18340;SDS011;9296;48.084;16.352;2023-07-31T13:16:06;2.75;;;2.05;;
18340;SDS011;9296;48.084;16.352;2023-07-31T13:18:34;5.53;;;2.38;;
18340;SDS011;9296;48.084;16.352;2023-07-31T13:21:01;2.83;;;2.10;;
18340;SDS011;9296;48.084;16.352;2023-07-31T13:23:29;2.45;;;1.75;;
18340;SDS011;9296;48.084;16.352;2023-07-31T13:25:56;2.65;;;1.88;;
18340;SDS011;9296;48.084;16.352;2023-07-31T13:28:23;3.28;;;1.60;;
18340;SDS011;9296;48.084;16.352;2023-07-31T13:30:50;5.85;;;1.67;;
18340;SDS011;9296;48.084;16.352;2023-07-31T13:33:17;3.85;;;1.50;;
18340;SDS011;9296;48.084;16.352;2023-07-31T13:35:46;5.30;;;2.10;;
18340;SDS011;9296;48.084;16.352;2023-07-31T13:38:13;2.15;;;1.73;;
18340;SDS011;9296;48.084;16.352;2023-07-31T13:40:40;1.83;;;1.50;;
18340;SDS011;9296;48.084;16.352;2023-07-31T13:43:07;2.75;;;1.63;;
18340;SDS011;9296;48.084;16.352;2023-07-31T13:45:35;10.48;;;2.00;;
18340;SDS011;9296;48.084;16.352;2023-07-31T13:48:02;2.80;;;1.60;;
18340;SDS011;9296;48.084;16.352;2023-07-31T13:50:29;4.13;;;1.60;;
18340;SDS011;9296;48.084;16.352;2023-07-31T13:52:58;3.60;;;2.05;;
18340;SDS011;9296;48.084;16.352;2023-07-31T13:55:25;3.42;;;1.90;;
18340;SDS011;9296;48.084;16.352;2023-07-31T13:57:52;2.85;;;1.80;;
18340;SDS011;9296;48.084;16.352;2023-07-31T14:00:19;3.55;;;1.50;;
18340;SDS011;9296;48.084;16.352;2023-07-31T14:02:47;3.35;;;1.70;;
18340;SDS011;9296;48.084;16.352;2023-07-31T14:08:19;4.95;;;1.75;;
18340;SDS011;9296;48.084;16.352;2023-07-31T14:10:46;3.15;;;1.77;;
18340;SDS011;9296;48.084;16.352;2023-07-31T14:13:13;3.15;;;1.90;;
18340;SDS011;9296;48.084;16.352;2023-07-31T14:15:41;2.45;;;1.73;;
18340;SDS011;9296;48.084;16.352;2023-07-31T14:18:08;3.38;;;1.73;;
18340;SDS011;9296;48.084;16.352;2023-07-31T14:20:36;2.70;;;1.83;;
18340;SDS011;9296;48.084;16.352;2023-07-31T14:23:03;2.53;;;1.77;;
18340;SDS011;9296;48.084;16.352;2023-07-31T14:25:31;3.72;;;1.85;;
18340;SDS011;9296;48.084;16.352;2023-07-31T14:27:58;2.40;;;1.70;;
18340;SDS011;9296;48.084;16.352;2023-07-31T14:30:26;2.70;;;1.70;;
18340;SDS011;9296;48.084;16.352;2023-07-31T14:32:53;2.40;;;1.75;;
18340;SDS011;9296;48.084;16.352;2023-07-31T14:35:38;1.70;;;1.60;;
18340;SDS011;9296;48.084;16.352;2023-07-31T14:38:05;4.25;;;1.80;;
18340;SDS011;9296;48.084;16.352;2023-07-31T14:40:34;3.33;;;1.88;;
18340;SDS011;9296;48.084;16.352;2023-07-31T14:43:01;6.15;;;1.73;;
18340;SDS011;9296;48.084;16.352;2023-07-31T14:45:28;3.17;;;1.70;;
18340;SDS011;9296;48.084;16.352;2023-07-31T14:47:56;5.78;;;2.33;;
18340;SDS011;9296;48.084;16.352;2023-07-31T14:50:23;3.53;;;1.70;;
18340;SDS011;9296;48.084;16.352;2023-07-31T14:52:51;3.38;;;1.90;;
18340;SDS011;9296;48.084;16.352;2023-07-31T14:55:19;3.22;;;1.80;;
18340;SDS011;9296;48.084;16.352;2023-07-31T14:57:48;2.75;;;1.75;;
18340;SDS011;9296;48.084;16.352;2023-07-31T15:00:15;2.33;;;1.95;;
18340;SDS011;9296;48.084;16.352;2023-07-31T15:02:42;4.93;;;1.77;;
18340;SDS011;9296;48.084;16.352;2023-07-31T15:05:09;3.60;;;1.75;;
18340;SDS011;9296;48.084;16.352;2023-07-31T15:07:36;3.38;;;1.92;;
18340;SDS011;9296;48.084;16.352;2023-07-31T15:10:04;3.33;;;1.75;;
18340;SDS011;9296;48.084;16.352;2023-07-31T15:12:31;2.92;;;1.88;;
18340;SDS011;9296;48.084;16.352;2023-07-31T15:15:00;3.60;;;1.83;;
18340;SDS011;9296;48.084;16.352;2023-07-31T15:17:27;3.25;;;1.70;;
18340;SDS011;9296;48.084;16.352;2023-07-31T15:19:55;2.70;;;1.63;;
18340;SDS011;9296;48.084;16.352;2023-07-31T15:22:22;3.42;;;1.70;;
18340;SDS011;9296;48.084;16.352;2023-07-31T15:24:49;3.83;;;2.03;;
18340;SDS011;9296;48.084;16.352;2023-07-31T15:27:17;4.18;;;1.88;;
18340;SDS011;9296;48.084;16.352;2023-07-31T15:29:44;4.95;;;2.20;;
18340;SDS011;9296;48.084;16.352;2023-07-31T15:32:12;3.95;;;1.90;;
18340;SDS011;9296;48.084;16.352;2023-07-31T15:34:58;5.53;;;1.75;;
18340;SDS011;9296;48.084;16.352;2023-07-31T15:37:25;6.25;;;2.22;;
18340;SDS011;9296;48.084;16.352;2023-07-31T15:39:52;2.55;;;1.73;;